createdAt,value
2022-11-28T00:02:08.906Z,13.77
2022-11-28T00:07:11.840Z,13.98
2022-11-28T00:12:13.742Z,14.32
2022-11-28T00:17:15.286Z,13.52
2022-11-28T00:22:16.882Z,13.68
2022-11-28T00:27:18.390Z,13.73
2022-11-28T00:32:19.852Z,14.18
2022-11-28T00:37:21.372Z,14.25
2022-11-28T00:42:23.181Z,14.90
2022-11-28T00:47:24.633Z,15.23
2022-11-28T00:52:26.151Z,15.02
2022-11-28T00:57:27.658Z,15.80
2022-11-28T01:02:30.289Z,16.00
2022-11-28T01:07:33.734Z,16.40
2022-11-28T01:12:35.282Z,16.08
2022-11-28T01:17:36.891Z,16.98
2022-11-28T01:22:38.346Z,17.90
2022-11-28T01:27:39.841Z,18.88
2022-11-28T01:32:41.358Z,17.58
2022-11-28T01:37:42.893Z,19.13
2022-11-28T01:42:44.455Z,18.48
2022-11-28T01:47:46.432Z,18.48
2022-11-28T01:52:53.205Z,17.58
2022-11-28T01:57:55.881Z,17.17
2022-11-28T02:03:09.167Z,18.38
2022-11-28T02:08:10.741Z,17.08
2022-11-28T02:13:12.145Z,18.05
2022-11-28T02:18:38.083Z,18.77
2022-11-28T02:23:57.492Z,19.45
2022-11-28T02:29:11.057Z,18.70
2022-11-28T02:34:20.684Z,19.27
2022-11-28T02:39:52.701Z,17.88
2022-11-28T02:45:31.220Z,17.83
2022-11-28T02:50:39.981Z,17.65
2022-11-28T02:55:44.116Z,17.05
2022-11-28T03:00:47.357Z,18.00
2022-11-28T03:05:57.296Z,16.98
2022-11-28T03:11:15.040Z,17.48
2022-11-28T03:16:46.833Z,17.75
2022-11-28T03:21:57.157Z,17.45
2022-11-28T03:27:13.378Z,18.55
2022-11-28T03:32:28.281Z,18.75
2022-11-28T03:37:33.723Z,18.83
2022-11-28T03:42:40.408Z,19.92
2022-11-28T03:47:45.700Z,20.23
2022-11-28T03:52:59.374Z,19.20
2022-11-28T03:58:17.299Z,20.10
2022-11-28T04:03:41.549Z,19.33
2022-11-28T04:08:56.373Z,20.98
2022-11-28T04:14:05.177Z,20.10
2022-11-28T04:19:25.291Z,20.13
2022-11-28T04:24:35.197Z,19.27
2022-11-28T04:29:43.246Z,19.02
2022-11-28T04:34:53.578Z,18.20
2022-11-28T04:39:56.757Z,18.52
2022-11-28T04:45:21.215Z,18.50
2022-11-28T04:50:25.564Z,18.70
2022-11-28T04:55:27.075Z,18.90
2022-11-28T05:00:28.673Z,19.05
2022-11-28T05:05:30.465Z,20.92
2022-11-28T05:10:32.135Z,21.17
2022-11-28T05:15:34.057Z,22.17
2022-11-28T05:20:37.247Z,23.67
2022-11-28T05:25:40.046Z,24.02
2022-11-28T05:30:41.504Z,23.15
2022-11-28T05:35:43.007Z,21.52
2022-11-28T05:40:44.536Z,21.75
2022-11-28T05:45:46.500Z,24.48
2022-11-28T05:50:50.747Z,24.77
2022-11-28T05:55:52.343Z,24.25
2022-11-28T06:00:53.858Z,24.85
2022-11-28T06:05:55.316Z,24.60
2022-11-28T06:10:59.799Z,24.83
2022-11-28T06:16:01.528Z,25.88
2022-11-28T06:21:04.969Z,26.63
2022-11-28T06:26:11.510Z,29.08
2022-11-28T06:31:33.391Z,29.55
2022-11-28T06:36:35.224Z,27.20
2022-11-28T06:41:36.703Z,28.17
2022-11-28T06:46:38.208Z,28.88
2022-11-28T06:51:41.312Z,29.33
2022-11-28T06:56:42.830Z,29.73
2022-11-28T07:01:45.338Z,29.70
2022-11-28T07:06:46.961Z,30.40
2022-11-28T07:11:48.448Z,30.33
2022-11-28T07:16:50.046Z,29.92
2022-11-28T07:21:51.629Z,28.58
2022-11-28T07:26:53.120Z,27.45
2022-11-28T07:31:54.700Z,24.85
2022-11-28T07:36:56.221Z,24.20
2022-11-28T07:41:59.089Z,24.13
2022-11-28T07:47:00.605Z,24.27
2022-11-28T07:52:02.177Z,25.92
2022-11-28T07:57:11.865Z,24.85
2022-11-28T08:02:14.511Z,26.95
2022-11-28T08:07:16.124Z,25.90
2022-11-28T08:12:17.780Z,24.52
2022-11-28T08:17:19.309Z,25.33
2022-11-28T08:22:20.846Z,28.58
2022-11-28T08:27:22.335Z,28.48
2022-11-28T08:32:23.817Z,29.20
2022-11-28T08:37:26.535Z,25.83
2022-11-28T08:42:28.803Z,26.75
2022-11-28T08:47:30.304Z,30.02
2022-11-28T08:52:33.144Z,29.77
2022-11-28T08:57:34.726Z,30.40
2022-11-28T09:02:36.312Z,32.92
2022-11-28T09:07:37.849Z,30.48
2022-11-28T09:12:39.401Z,31.35
2022-11-28T09:17:40.899Z,32.53
2022-11-28T09:22:42.669Z,32.72
2022-11-28T09:27:44.184Z,31.85
2022-11-28T09:32:48.717Z,34.00
2022-11-28T09:37:50.195Z,35.20
2022-11-28T09:42:51.749Z,33.75
2022-11-28T09:47:59.332Z,33.47
2022-11-28T09:53:14.199Z,34.88
2022-11-28T09:58:24.617Z,32.83
2022-11-28T10:03:32.785Z,32.28
2022-11-28T10:08:53.525Z,34.75
2022-11-28T10:14:37.851Z,34.92
2022-11-28T10:19:54.167Z,34.08
2022-11-28T10:25:03.360Z,32.00
2022-11-28T10:30:34.283Z,35.55
2022-11-28T10:35:44.012Z,33.60
2022-11-28T10:40:55.643Z,38.33
2022-11-28T10:46:18.933Z,37.38
2022-11-28T10:51:55.015Z,40.33
2022-11-28T10:57:09.304Z,37.13
2022-11-28T11:02:33.200Z,38.45
2022-11-28T11:07:34.900Z,40.00
2022-11-28T11:12:36.530Z,40.00
2022-11-28T11:17:38.050Z,41.28
2022-11-28T11:22:39.576Z,40.70
2022-11-28T11:27:52.537Z,40.35
2022-11-28T11:32:56.299Z,40.10
2022-11-28T11:38:17.802Z,37.05
2022-11-28T11:43:22.229Z,39.05
2022-11-28T11:48:39.446Z,36.25
2022-11-28T11:53:40.889Z,39.90
2022-11-28T11:58:51.226Z,38.33
2022-11-28T12:04:08.483Z,43.72
2022-11-28T12:09:28.707Z,43.08
2022-11-28T12:14:33.880Z,43.45
2022-11-28T12:19:54.296Z,44.13
2022-11-28T12:24:56.110Z,43.58
2022-11-28T12:30:39.075Z,40.92
2022-11-28T12:36:12.224Z,43.83
2022-11-28T12:41:34.306Z,44.92
2022-11-28T12:47:09.337Z,44.72
2022-11-28T12:52:10.803Z,43.70
2022-11-28T12:57:38.174Z,41.22
2022-11-28T13:02:48.505Z,45.87
2022-11-28T13:08:06.956Z,44.25
2022-11-28T13:13:29.012Z,44.25
2022-11-28T13:18:58.475Z,43.38
2022-11-28T13:24:07.503Z,46.67
2022-11-28T13:29:42.078Z,42.70
2022-11-28T13:34:44.941Z,41.40
2022-11-28T13:39:54.619Z,42.33
2022-11-28T13:45:00.867Z,40.22
2022-11-28T13:50:30.078Z,39.10
2022-11-28T13:55:40.733Z,40.42
2022-11-28T14:00:42.737Z,38.92
2022-11-28T14:05:44.355Z,38.60
2022-11-28T14:11:10.424Z,37.97
2022-11-28T14:16:21.931Z,39.80
2022-11-28T14:22:01.735Z,41.20
2022-11-28T14:27:05.604Z,41.65
2022-11-28T14:32:30.095Z,38.88
2022-11-28T14:37:34.019Z,42.15
2022-11-28T14:48:17.605Z,41.75
2022-11-28T14:53:37.016Z,44.45
2022-11-28T14:58:38.752Z,48.05
2022-11-28T15:03:53.710Z,42.67
2022-11-28T15:09:30.283Z,45.85
2022-11-28T15:14:33.423Z,37.60
2022-11-28T15:19:49.301Z,38.42
2022-11-28T15:24:54.003Z,36.58
2022-11-28T15:29:59.523Z,38.90
2022-11-28T15:35:09.204Z,37.47
2022-11-28T15:40:28.968Z,33.35
2022-11-28T15:45:35.288Z,33.22
2022-11-28T15:50:36.803Z,31.58
2022-11-28T15:55:38.300Z,34.15
2022-11-28T16:00:44.019Z,41.40
2022-11-28T16:05:47.878Z,35.08
2022-11-28T16:10:50.417Z,29.52
2022-11-28T16:15:56.010Z,29.70
2022-11-28T16:21:00.546Z,40.00
2022-11-28T16:26:08.316Z,40.88
2022-11-28T16:36:15.091Z,40.67
2022-11-28T16:41:20.391Z,39.80
2022-11-28T16:46:28.261Z,34.25
2022-11-28T16:51:33.228Z,39.67
2022-11-28T16:56:34.682Z,39.47
2022-11-28T17:01:36.290Z,33.17
2022-11-28T17:06:37.841Z,33.53
2022-11-28T17:11:46.217Z,35.13
2022-11-28T17:16:47.845Z,33.65
2022-11-28T17:21:56.695Z,39.70
2022-11-28T17:26:58.214Z,37.63
2022-11-28T17:32:02.050Z,40.83
2022-11-28T17:37:05.084Z,38.38
2022-11-28T17:42:06.664Z,37.78
2022-11-28T17:47:08.224Z,44.60
2022-11-28T17:52:09.755Z,39.60
2022-11-28T17:57:11.262Z,51.95
2022-11-28T18:02:12.769Z,71.63
2022-11-28T18:07:14.380Z,46.67
2022-11-28T18:12:15.862Z,43.40
2022-11-28T18:17:17.415Z,36.83
2022-11-28T18:22:18.905Z,43.60
2022-11-28T18:27:20.468Z,35.28
2022-11-28T18:32:22.036Z,30.73
2022-11-28T18:37:23.570Z,30.63
2022-11-28T18:42:25.141Z,28.20
2022-11-28T18:47:28.352Z,28.70
2022-11-28T18:52:29.913Z,27.55
2022-11-28T18:57:33.589Z,30.90
2022-11-28T19:02:35.608Z,35.53
2022-11-28T19:07:37.321Z,33.95
2022-11-28T19:12:41.206Z,45.28
2022-11-28T19:17:42.654Z,33.97
2022-11-28T19:22:44.133Z,46.63
2022-11-28T19:27:45.577Z,29.52
2022-11-28T19:32:47.098Z,32.08
2022-11-28T19:37:48.631Z,28.42
2022-11-28T19:42:50.116Z,27.17
2022-11-28T19:47:51.656Z,27.40
2022-11-28T19:52:53.198Z,27.50
2022-11-28T19:57:54.752Z,29.05
2022-11-28T20:02:56.242Z,31.63
2022-11-28T20:07:58.775Z,33.80
2022-11-28T20:13:00.485Z,35.38
2022-11-28T20:18:02.370Z,35.50
2022-11-28T20:23:03.838Z,34.15
2022-11-28T20:28:05.346Z,37.15
2022-11-28T20:33:06.805Z,37.15
2022-11-28T20:38:08.322Z,32.63
2022-11-28T20:43:09.799Z,32.05
2022-11-28T20:48:11.277Z,39.58
2022-11-28T20:53:12.805Z,46.05
2022-11-28T20:58:14.275Z,35.67
2022-11-28T21:03:15.940Z,33.33
2022-11-28T21:08:17.541Z,31.08
2022-11-28T21:13:19.096Z,32.03
2022-11-28T21:18:20.634Z,42.45
2022-11-28T21:23:22.092Z,36.60
2022-11-28T21:28:23.587Z,34.78
2022-11-28T21:33:25.355Z,35.47
2022-11-28T21:38:26.926Z,36.38
2022-11-28T21:43:29.032Z,31.98
2022-11-28T21:48:31.673Z,32.67
2022-11-28T21:53:34.152Z,35.15
2022-11-28T21:58:35.709Z,33.63
2022-11-28T22:03:38.102Z,33.03
2022-11-28T22:08:39.659Z,34.67
2022-11-28T22:13:42.476Z,34.67
2022-11-28T22:18:45.095Z,33.13
2022-11-28T22:23:46.719Z,33.30
2022-11-28T22:28:53.561Z,31.45
2022-11-28T22:33:55.834Z,30.48
2022-11-28T22:38:58.946Z,31.90
2022-11-28T22:44:02.098Z,31.23
2022-11-28T22:49:03.814Z,31.88
2022-11-28T22:54:05.444Z,32.60
2022-11-28T22:59:14.419Z,33.35
2022-11-28T23:04:16.215Z,34.90
2022-11-28T23:09:17.746Z,36.22
2022-11-28T23:14:19.255Z,36.42
2022-11-28T23:19:20.716Z,37.83
2022-11-28T23:24:23.252Z,39.63
2022-11-28T23:29:24.742Z,42.97
2022-11-28T23:34:26.301Z,43.70
2022-11-28T23:39:27.866Z,44.88
2022-11-28T23:44:29.568Z,47.08
2022-11-28T23:49:31.051Z,46.85
2022-11-28T23:54:32.678Z,48.45
2022-11-28T23:59:34.251Z,48.38
